Main page
METAR-TAF:

METAR-TAF

Airports :

Campbeltown, Scotland

Campbeltown Airport

latitude: 55-26-14N, longitude: 005-41-11W, elevation: 13 m

Current weather observation

The report was made 29 minutes ago, at 08:50 UTC
Wind 17 kt from the East/Southeast
Temperature 9°C
Humidity 100%
Pressure 1012 hPa
Visibility 10 km or more
Broken clouds at a height of 300 ft

METAR: EGEC 290850Z 11017KT 9999 BKN003 09/09 Q1012

Time: 10:19 (09:19 UTC)

Forecast

The report was made 1 hour and 21 minutes ago, at 07:58 UTC
Forecast valid from 29 at 09 UTC to 29 at 17 UTC
Wind 14 kt from the Southeast
Visibility 10 km or more
Broken clouds at a height of 1500 ft
Temporary
from 29 at 09 UTC to 29 at 17 UTC
Wind 20 kt from the Southeast with gusts up to 30 kt
Visibility: 4000 m
Broken clouds at a height of 500 ft
rain, mist
Probability 40% :
Temporary
from 29 at 09 UTC to 29 at 17 UTC
Broken clouds at a height of 200 ft

TAF: EGEC 290758Z 2909/2917 13014KT 9999 BKN015 TEMPO 2909/2917 13020G30KT 4000 RA BR BKN005 PROB40 TEMPO 2909/2917 BKN002

Weather observations and forecasts of more than 4000 airports (METAR and TAF reports).

The available stations are represented by yellow and red dots on the map.

Hover mouse over dot to see the name of the station.

Then click to see weather observations and forecasts.

To change the map : click on the green buttons with a black cross to zoom in, on the green button with a dash to zoom out, or on the green arrows for adjacent maps.


METAR-TAF: